createdAt,value
2017-05-18T00:02:27.966Z,5.58
2017-05-18T00:04:56.911Z,5.26
2017-05-18T00:07:25.907Z,5.76
2017-05-18T00:09:54.107Z,5.66
2017-05-18T00:12:22.311Z,5.64
2017-05-18T00:14:50.532Z,5.68
2017-05-18T00:17:18.740Z,6.50
2017-05-18T00:19:47.695Z,6.06
2017-05-18T00:22:15.899Z,5.68
2017-05-18T00:24:44.115Z,5.92
2017-05-18T00:27:12.318Z,6.20
2017-05-18T00:29:40.527Z,6.28
2017-05-18T00:32:08.733Z,5.42
2017-05-18T00:34:36.943Z,5.80
2017-05-18T00:37:05.166Z,5.26
2017-05-18T00:39:34.123Z,5.30
2017-05-18T00:42:02.340Z,5.06
2017-05-18T00:44:31.279Z,5.88
2017-05-18T00:46:59.497Z,5.46
2017-05-18T00:49:29.331Z,4.84
2017-05-18T00:51:57.554Z,5.32
2017-05-18T00:54:25.754Z,5.08
2017-05-18T00:56:54.708Z,4.78
2017-05-18T00:59:22.928Z,5.08
2017-05-18T01:01:51.870Z,5.66
2017-05-18T01:04:20.086Z,5.92
2017-05-18T01:06:49.037Z,5.54
2017-05-18T01:09:17.235Z,5.28
2017-05-18T01:11:45.439Z,4.80
2017-05-18T01:14:14.400Z,5.16
2017-05-18T01:16:42.603Z,5.44
2017-05-18T01:19:11.555Z,5.08
2017-05-18T01:21:39.784Z,5.44
2017-05-18T01:24:07.983Z,5.02
2017-05-18T01:26:36.190Z,5.24
2017-05-18T01:29:04.391Z,5.10
2017-05-18T01:31:33.348Z,4.92
2017-05-18T01:34:01.553Z,5.72
2017-05-18T01:36:30.511Z,6.22
2017-05-18T01:38:58.724Z,5.76
2017-05-18T01:41:27.672Z,5.06
2017-05-18T01:43:55.891Z,5.34
2017-05-18T01:46:24.835Z,5.60
2017-05-18T01:48:53.337Z,5.52
2017-05-18T01:51:21.528Z,5.90
2017-05-18T01:53:49.727Z,5.22
2017-05-18T01:56:17.947Z,5.92
2017-05-18T01:58:46.154Z,6.40
2017-05-18T02:01:14.363Z,7.20
2017-05-18T02:03:42.571Z,7.46
2017-05-18T02:06:10.782Z,6.06
2017-05-18T02:08:39.732Z,6.38
2017-05-18T02:11:07.935Z,6.64
2017-05-18T02:13:36.159Z,7.16
2017-05-18T02:16:04.370Z,7.82
2017-05-18T02:18:32.583Z,7.56
2017-05-18T02:21:01.519Z,6.98
2017-05-18T02:23:29.739Z,6.90
2017-05-18T02:25:58.686Z,7.12
2017-05-18T02:28:26.879Z,6.64
2017-05-18T02:31:00.039Z,6.66
2017-05-18T02:33:28.232Z,7.38
2017-05-18T02:35:56.444Z,7.42
2017-05-18T02:38:25.402Z,6.16
2017-05-18T02:40:53.624Z,5.72
2017-05-18T02:43:21.844Z,6.18
2017-05-18T02:45:50.050Z,6.06
2017-05-18T02:48:18.268Z,6.96
2017-05-18T02:50:46.474Z,6.00
2017-05-18T02:53:14.679Z,6.20
2017-05-18T02:55:43.623Z,6.72
2017-05-18T02:58:11.850Z,6.76
2017-05-18T03:00:40.056Z,5.92
2017-05-18T03:03:08.260Z,6.12
2017-05-18T03:05:36.475Z,7.28
2017-05-18T03:08:05.423Z,6.82
2017-05-18T03:10:33.635Z,6.62
2017-05-18T03:13:02.584Z,6.84
2017-05-18T03:15:30.799Z,6.60
2017-05-18T03:17:59.767Z,7.20
2017-05-18T03:20:27.971Z,7.68
2017-05-18T03:22:56.932Z,8.50
2017-05-18T03:25:25.132Z,7.58
2017-05-18T03:27:53.348Z,7.80
2017-05-18T03:30:24.795Z,7.50
2017-05-18T03:32:53.028Z,9.22
2017-05-18T03:35:21.232Z,8.36
2017-05-18T03:37:49.436Z,8.80
2017-05-18T03:40:17.648Z,8.60
2017-05-18T03:42:45.857Z,8.24
2017-05-18T03:45:14.071Z,8.40
2017-05-18T03:47:42.276Z,7.50
2017-05-18T03:50:10.482Z,7.40
2017-05-18T03:52:38.699Z,8.88
2017-05-18T03:55:06.907Z,7.42
2017-05-18T03:57:36.172Z,7.58
2017-05-18T04:00:04.372Z,7.32
2017-05-18T04:02:32.603Z,8.74
2017-05-18T04:05:00.814Z,8.74
2017-05-18T04:07:29.015Z,7.92
2017-05-18T04:09:57.964Z,7.76
2017-05-18T04:12:26.170Z,8.22
2017-05-18T04:14:54.385Z,9.02
2017-05-18T04:17:22.587Z,8.14
2017-05-18T04:19:50.803Z,7.74
2017-05-18T04:22:19.752Z,7.56
2017-05-18T04:24:47.977Z,8.26
2017-05-18T04:27:16.919Z,7.20
2017-05-18T04:29:45.119Z,7.22
2017-05-18T04:32:13.332Z,7.80
2017-05-18T04:34:41.538Z,7.22
2017-05-18T04:37:09.768Z,6.84
2017-05-18T04:39:38.719Z,6.52
2017-05-18T04:42:06.932Z,6.34
2017-05-18T04:44:35.875Z,6.08
2017-05-18T04:47:04.079Z,5.78
2017-05-18T04:49:32.299Z,5.30
2017-05-18T04:52:00.515Z,6.22
2017-05-18T04:54:28.735Z,6.28
2017-05-18T04:56:56.948Z,6.60
2017-05-18T04:59:25.168Z,6.34
2017-05-18T05:01:54.107Z,6.00
2017-05-18T05:04:22.317Z,5.44
2017-05-18T05:06:51.284Z,6.46
2017-05-18T05:09:19.483Z,5.52
2017-05-18T05:11:47.702Z,5.62
2017-05-18T05:14:15.907Z,5.76
2017-05-18T05:16:44.120Z,5.42
2017-05-18T05:19:13.065Z,5.38
2017-05-18T05:21:41.267Z,6.04
2017-05-18T05:24:09.484Z,6.14
2017-05-18T05:26:37.688Z,5.70
2017-05-18T05:29:05.899Z,5.80
2017-05-18T05:31:34.101Z,5.82
2017-05-18T05:34:03.069Z,5.92
2017-05-18T05:36:31.275Z,4.90
2017-05-18T05:39:00.719Z,5.60
2017-05-18T05:41:28.943Z,4.52
2017-05-18T05:43:57.882Z,4.62
2017-05-18T05:46:26.100Z,4.82
2017-05-18T05:48:55.041Z,4.80
2017-05-18T05:51:23.282Z,3.98
2017-05-18T05:53:51.497Z,5.10
2017-05-18T05:56:19.700Z,4.76
2017-05-18T05:58:47.915Z,4.64
2017-05-18T06:01:16.123Z,4.90
2017-05-18T06:03:44.336Z,5.38
2017-05-18T06:06:13.285Z,4.98
2017-05-18T06:08:41.504Z,4.86
2017-05-18T06:11:10.461Z,4.82
2017-05-18T06:13:38.672Z,4.16
2017-05-18T06:16:07.627Z,4.72
2017-05-18T06:18:35.829Z,4.58
2017-05-18T06:21:04.793Z,3.94
2017-05-18T06:23:32.996Z,4.84
2017-05-18T06:26:01.224Z,4.60
2017-05-18T06:28:29.447Z,4.36
2017-05-18T06:30:57.647Z,4.12
2017-05-18T06:33:25.868Z,4.18
2017-05-18T06:35:54.071Z,4.20
2017-05-18T06:38:22.289Z,4.70
2017-05-18T06:40:50.487Z,3.96
2017-05-18T06:43:18.708Z,3.58
2017-05-18T06:45:47.661Z,3.56
2017-05-18T06:48:15.876Z,3.98
2017-05-18T06:50:44.831Z,3.88
2017-05-18T06:53:13.032Z,4.30
2017-05-18T06:55:41.984Z,3.84
2017-05-18T06:58:10.203Z,3.96
2017-05-18T07:00:39.168Z,4.02
2017-05-18T07:03:07.369Z,4.50
2017-05-18T07:05:36.317Z,4.40
2017-05-18T07:08:04.534Z,3.76
2017-05-18T07:10:33.487Z,4.14
2017-05-18T07:13:01.711Z,4.56
2017-05-18T07:15:30.672Z,3.58
2017-05-18T07:17:58.908Z,4.38
2017-05-18T07:20:27.120Z,3.76
2017-05-18T07:22:55.323Z,3.82
2017-05-18T07:25:24.284Z,2.94
2017-05-18T07:27:52.497Z,3.44
2017-05-18T07:30:21.458Z,3.04
2017-05-18T07:32:49.659Z,2.78
2017-05-18T07:35:18.603Z,2.62
2017-05-18T07:37:46.820Z,2.70
2017-05-18T07:40:15.767Z,3.04
2017-05-18T07:42:43.984Z,2.96
2017-05-18T07:45:12.936Z,3.00
2017-05-18T07:47:41.160Z,2.78
2017-05-18T07:50:10.111Z,3.28
2017-05-18T07:52:38.343Z,2.98
2017-05-18T07:55:06.551Z,3.10
2017-05-18T07:57:34.772Z,3.94
2017-05-18T08:00:03.737Z,3.16
2017-05-18T08:02:31.951Z,3.32
2017-05-18T08:05:00.230Z,3.20
2017-05-18T08:07:28.391Z,3.30
2017-05-18T08:09:57.347Z,2.80
2017-05-18T08:12:25.551Z,2.92
2017-05-18T08:14:54.499Z,2.92
2017-05-18T08:17:22.715Z,2.92
2017-05-18T08:19:51.668Z,2.70
2017-05-18T08:22:19.891Z,2.60
2017-05-18T08:24:48.839Z,2.40
2017-05-18T08:27:17.043Z,2.50
2017-05-18T08:29:45.999Z,2.34
2017-05-18T08:32:14.227Z,2.88
2017-05-18T08:34:43.171Z,2.10
2017-05-18T08:37:11.387Z,2.14
2017-05-18T08:39:40.338Z,2.62
2017-05-18T08:42:08.543Z,2.76
2017-05-18T08:44:36.751Z,2.22
2017-05-18T08:47:04.959Z,2.10
2017-05-18T08:49:33.186Z,2.04
2017-05-18T08:52:02.159Z,1.64
2017-05-18T08:54:31.120Z,1.82
2017-05-18T08:56:59.331Z,2.06
2017-05-18T08:59:28.305Z,1.60
2017-05-18T09:01:56.515Z,1.74
2017-05-18T09:04:24.728Z,1.80
2017-05-18T09:06:52.935Z,2.06
2017-05-18T09:09:21.148Z,1.44
2017-05-18T09:11:49.351Z,1.04
2017-05-18T09:14:17.555Z,1.50
2017-05-18T09:16:45.792Z,1.30
2017-05-18T09:19:14.001Z,1.74
2017-05-18T09:21:42.224Z,1.70
2017-05-18T09:24:10.431Z,1.50
2017-05-18T09:26:38.647Z,1.46
2017-05-18T09:29:07.599Z,1.52
2017-05-18T09:31:35.836Z,1.00
2017-05-18T09:34:04.048Z,0.90
2017-05-18T09:36:32.253Z,1.22
2017-05-18T09:39:00.462Z,1.38
2017-05-18T09:41:28.672Z,1.40
2017-05-18T09:43:56.887Z,1.68
2017-05-18T09:46:25.836Z,1.32
2017-05-18T09:48:54.055Z,1.54
2017-05-18T09:51:23.007Z,1.34
2017-05-18T09:53:51.217Z,1.54
2017-05-18T09:56:20.175Z,1.58
2017-05-18T09:58:48.380Z,1.60
2017-05-18T10:01:16.588Z,1.90
2017-05-18T10:03:44.802Z,1.78
2017-05-18T10:06:13.020Z,1.86
2017-05-18T10:08:41.971Z,1.84
2017-05-18T10:11:10.199Z,1.82
2017-05-18T10:13:38.415Z,1.90
2017-05-18T10:16:06.623Z,2.06
2017-05-18T10:18:35.600Z,1.92
2017-05-18T10:21:03.799Z,1.72
2017-05-18T10:23:33.056Z,2.70
2017-05-18T10:26:01.259Z,2.52
2017-05-18T10:28:29.475Z,2.72
2017-05-18T10:30:57.675Z,2.60
2017-05-18T10:33:25.892Z,2.12
2017-05-18T10:35:54.837Z,2.30
2017-05-18T10:38:23.055Z,1.96
2017-05-18T10:40:52.011Z,2.34
2017-05-18T10:43:20.227Z,2.00
2017-05-18T10:45:49.188Z,2.04
2017-05-18T10:48:17.393Z,1.90
2017-05-18T10:50:46.357Z,1.98
2017-05-18T10:53:14.565Z,2.12
2017-05-18T10:55:43.536Z,1.70
2017-05-18T10:58:11.736Z,1.60
2017-05-18T11:00:39.950Z,1.70
2017-05-18T11:03:08.172Z,1.94
2017-05-18T11:05:40.699Z,2.18
2017-05-18T11:08:08.923Z,1.98
2017-05-18T11:10:37.876Z,1.94
2017-05-18T11:13:06.114Z,1.60
2017-05-18T11:15:34.326Z,2.12
2017-05-18T11:18:02.543Z,2.12
2017-05-18T11:20:31.507Z,1.70
2017-05-18T11:22:59.707Z,2.10
2017-05-18T11:25:28.679Z,2.08
2017-05-18T11:27:56.892Z,1.92
2017-05-18T11:30:25.099Z,2.42
2017-05-18T11:32:53.319Z,2.10
2017-05-18T11:35:21.525Z,2.42
2017-05-18T11:37:49.744Z,2.26
2017-05-18T11:40:17.947Z,2.34
2017-05-18T11:42:46.915Z,2.52
2017-05-18T11:45:15.132Z,1.82
2017-05-18T11:47:44.072Z,2.70
2017-05-18T11:50:12.291Z,1.98
2017-05-18T11:52:41.229Z,2.18
2017-05-18T11:55:09.442Z,2.46
2017-05-18T11:57:37.644Z,2.20
2017-05-18T12:00:05.897Z,1.70
2017-05-18T12:02:34.845Z,2.00
2017-05-18T12:05:03.053Z,2.38
2017-05-18T12:07:31.260Z,3.06
2017-05-18T12:09:59.468Z,2.70
2017-05-18T12:12:27.679Z,4.40
2017-05-18T12:14:55.888Z,2.82
2017-05-18T12:17:24.106Z,2.84
2017-05-18T12:19:52.307Z,2.16
2017-05-18T12:22:20.503Z,3.20
2017-05-18T12:24:49.463Z,2.66
2017-05-18T12:27:17.672Z,2.68
2017-05-18T12:29:45.895Z,2.48
2017-05-18T12:32:14.104Z,2.30
2017-05-18T12:34:43.058Z,1.94
2017-05-18T12:37:11.263Z,1.92
2017-05-18T12:39:39.509Z,2.06
2017-05-18T12:42:07.716Z,1.98
2017-05-18T12:44:35.914Z,2.20
2017-05-18T12:47:04.132Z,1.88
2017-05-18T12:49:32.330Z,1.80
2017-05-18T12:52:00.535Z,2.38
2017-05-18T12:54:28.740Z,2.26
2017-05-18T12:56:56.985Z,1.82
2017-05-18T12:59:25.204Z,2.18
2017-05-18T13:01:53.411Z,1.68
2017-05-18T13:04:21.627Z,1.98
2017-05-18T13:06:50.736Z,1.60
2017-05-18T13:09:18.952Z,1.94
2017-05-18T13:11:47.159Z,1.96
2017-05-18T13:14:15.390Z,2.06
2017-05-18T13:16:43.594Z,1.94
2017-05-18T13:19:12.545Z,1.68
2017-05-18T13:21:40.774Z,1.88
2017-05-18T13:24:08.989Z,2.16
2017-05-18T13:26:37.203Z,1.84
2017-05-18T13:29:06.156Z,2.20
2017-05-18T13:31:34.434Z,2.00
2017-05-18T13:34:02.607Z,1.48
2017-05-18T13:36:30.820Z,1.80
2017-05-18T13:38:59.779Z,1.90
2017-05-18T13:41:27.978Z,1.70
2017-05-18T13:43:56.944Z,4.20
2017-05-18T13:46:25.151Z,4.82
2017-05-18T13:48:54.117Z,5.54
2017-05-18T13:51:22.323Z,5.66
2017-05-18T13:53:51.277Z,6.96
2017-05-18T13:56:19.479Z,6.88
2017-05-18T13:58:47.696Z,6.50
2017-05-18T14:01:15.895Z,6.56
2017-05-18T14:03:44.131Z,5.22
2017-05-18T14:06:12.352Z,5.76
2017-05-18T14:08:40.569Z,6.96
2017-05-18T14:11:09.511Z,6.78
2017-05-18T14:13:37.727Z,7.02
2017-05-18T14:16:06.674Z,6.88
2017-05-18T14:18:34.880Z,6.82
2017-05-18T14:21:03.103Z,5.74
2017-05-18T14:23:31.316Z,7.64
2017-05-18T14:25:59.536Z,7.68
2017-05-18T14:28:27.740Z,6.94
2017-05-18T14:30:55.956Z,9.00
2017-05-18T14:33:24.160Z,6.18
2017-05-18T14:35:52.376Z,5.62
2017-05-18T14:38:20.575Z,5.60
2017-05-18T14:40:48.796Z,2.76
2017-05-18T14:43:17.021Z,2.08
2017-05-18T14:45:45.239Z,2.32
2017-05-18T14:48:13.446Z,3.38
2017-05-18T14:50:41.659Z,3.42
2017-05-18T14:53:09.864Z,3.68
2017-05-18T14:55:38.080Z,4.82
2017-05-18T14:58:06.279Z,4.48
2017-05-18T15:00:34.503Z,3.20
2017-05-18T15:03:02.707Z,2.78
2017-05-18T15:05:30.939Z,3.48
2017-05-18T15:07:59.147Z,3.30
2017-05-18T15:10:27.351Z,2.92
2017-05-18T15:12:55.572Z,2.86
2017-05-18T15:15:23.772Z,2.60
2017-05-18T15:17:51.980Z,2.60
2017-05-18T15:20:20.936Z,2.94
2017-05-18T15:22:49.160Z,2.56
2017-05-18T15:25:18.104Z,2.84
2017-05-18T15:27:46.324Z,2.92
2017-05-18T15:30:15.271Z,2.52
2017-05-18T15:32:43.499Z,2.74
2017-05-18T15:35:11.723Z,2.80
2017-05-18T15:37:39.952Z,2.56
2017-05-18T15:40:08.155Z,2.60
2017-05-18T15:42:36.380Z,2.76
2017-05-18T15:45:05.338Z,2.54
2017-05-18T15:47:33.558Z,2.18
2017-05-18T15:50:02.509Z,2.04
2017-05-18T15:52:30.723Z,2.04
2017-05-18T15:54:59.668Z,2.00
2017-05-18T15:57:27.874Z,2.44
2017-05-18T15:59:56.071Z,2.22
2017-05-18T16:02:25.046Z,2.30
2017-05-18T16:04:53.254Z,1.76
2017-05-18T16:07:21.460Z,1.80
2017-05-18T16:09:49.679Z,2.30
2017-05-18T16:12:18.628Z,1.80
2017-05-18T16:14:46.830Z,1.94
2017-05-18T16:17:15.039Z,1.96
2017-05-18T16:19:43.252Z,1.48
2017-05-18T16:22:11.447Z,1.40
2017-05-18T16:24:39.668Z,1.64
2017-05-18T16:27:07.876Z,1.50
2017-05-18T16:29:36.100Z,1.62
2017-05-18T16:32:05.051Z,1.82
2017-05-18T16:34:33.264Z,1.32
2017-05-18T16:37:01.492Z,1.40
2017-05-18T16:39:29.709Z,1.62
2017-05-18T16:41:58.661Z,1.50
2017-05-18T16:44:26.858Z,1.88
2017-05-18T16:46:55.079Z,1.92
2017-05-18T16:49:23.280Z,1.58
2017-05-18T16:51:51.497Z,1.70
2017-05-18T16:54:20.441Z,1.90
2017-05-18T16:56:48.655Z,1.52
2017-05-18T16:59:16.861Z,1.80
2017-05-18T17:01:45.084Z,1.44
2017-05-18T17:04:13.284Z,2.16
2017-05-18T17:06:42.240Z,1.72
2017-05-18T17:09:10.448Z,2.10
2017-05-18T17:11:39.396Z,1.92
2017-05-18T17:14:07.605Z,1.62
2017-05-18T17:16:35.815Z,2.50
2017-05-18T17:19:04.020Z,2.24
2017-05-18T17:21:32.224Z,1.92
2017-05-18T17:24:00.428Z,1.92
2017-05-18T17:26:29.392Z,1.90
2017-05-18T17:28:57.603Z,1.82
2017-05-18T17:31:25.832Z,1.92
2017-05-18T17:33:54.031Z,1.50
2017-05-18T17:36:22.261Z,1.50
2017-05-18T17:38:50.470Z,1.84
2017-05-18T17:41:18.667Z,1.78
2017-05-18T17:43:47.617Z,1.50
2017-05-18T17:46:15.831Z,3.14
2017-05-18T17:48:44.791Z,2.22
2017-05-18T17:51:12.995Z,2.76
2017-05-18T17:53:41.978Z,1.78
2017-05-18T17:56:10.184Z,2.14
2017-05-18T17:58:38.393Z,2.32
2017-05-18T18:01:06.603Z,2.08
2017-05-18T18:03:35.559Z,1.90
2017-05-18T18:06:03.777Z,2.18
2017-05-18T18:08:32.725Z,2.38
2017-05-18T18:11:00.959Z,2.16
2017-05-18T18:13:28.391Z,1.74
2017-05-18T18:16:15.480Z,2.32
2017-05-18T18:18:44.472Z,2.50
2017-05-18T18:21:12.675Z,1.74
2017-05-18T18:23:41.630Z,1.58
2017-05-18T18:26:09.844Z,2.18
2017-05-18T18:28:38.783Z,1.72
2017-05-18T18:31:06.989Z,2.16
2017-05-18T18:33:35.188Z,2.32
2017-05-18T18:36:17.462Z,1.80
2017-05-18T18:38:45.672Z,1.68
2017-05-18T18:41:14.633Z,1.88
2017-05-18T18:43:42.855Z,1.66
2017-05-18T18:46:11.072Z,1.88
2017-05-18T18:48:39.280Z,2.40
2017-05-18T18:51:08.236Z,2.20
2017-05-18T18:53:36.463Z,2.16
2017-05-18T18:56:04.665Z,2.32
2017-05-18T18:58:32.871Z,2.54
2017-05-18T19:01:01.084Z,2.42
2017-05-18T19:03:30.027Z,2.62
2017-05-18T19:05:58.233Z,2.42
2017-05-18T19:08:27.192Z,2.86
2017-05-18T19:10:55.423Z,3.30
2017-05-18T19:13:25.032Z,2.72
2017-05-18T19:15:53.968Z,3.00
2017-05-18T19:18:22.167Z,2.70
2017-05-18T19:20:50.421Z,2.30
2017-05-18T19:23:18.622Z,2.38
2017-05-18T19:25:46.835Z,3.46
2017-05-18T19:28:15.055Z,2.60
2017-05-18T19:30:43.252Z,2.74
2017-05-18T19:33:12.201Z,2.94
2017-05-18T19:35:40.413Z,3.12
2017-05-18T19:38:08.612Z,2.82
2017-05-18T19:40:36.811Z,2.62
2017-05-18T19:43:05.016Z,3.08
2017-05-18T19:45:33.220Z,2.70
2017-05-18T19:48:02.186Z,2.82
2017-05-18T19:50:30.386Z,3.18
2017-05-18T19:52:59.336Z,3.18
2017-05-18T19:55:27.545Z,2.92
2017-05-18T19:57:55.761Z,3.76
2017-05-18T20:00:23.969Z,3.36
2017-05-18T20:02:52.169Z,3.68
2017-05-18T20:05:20.366Z,2.90
2017-05-18T20:07:48.574Z,3.20
2017-05-18T20:10:16.771Z,3.70
2017-05-18T20:12:44.971Z,3.78
2017-05-18T20:15:13.928Z,2.92
2017-05-18T20:17:42.135Z,3.88
2017-05-18T20:20:11.228Z,3.40
2017-05-18T20:22:40.031Z,4.04
2017-05-18T20:25:08.980Z,3.62
2017-05-18T20:27:37.196Z,3.10
2017-05-18T20:30:30.965Z,3.48
2017-05-18T20:32:59.922Z,3.82
2017-05-18T20:35:28.129Z,3.34
2017-05-18T20:37:57.099Z,4.20
2017-05-18T20:40:25.312Z,5.04
2017-05-18T20:42:53.540Z,3.78
2017-05-18T20:45:21.748Z,4.66
2017-05-18T20:47:50.704Z,3.96
2017-05-18T20:50:18.931Z,4.00
2017-05-18T20:52:47.153Z,4.48
2017-05-18T20:55:15.363Z,4.12
2017-05-18T20:57:44.316Z,5.00
2017-05-18T21:00:12.540Z,4.38
2017-05-18T21:02:41.491Z,3.94
2017-05-18T21:05:09.732Z,4.26
2017-05-18T21:07:37.940Z,4.10
2017-05-18T21:10:06.135Z,4.38
2017-05-18T21:12:34.347Z,4.02
2017-05-18T21:15:02.548Z,4.00
2017-05-18T21:17:30.756Z,4.00
2017-05-18T21:19:58.964Z,5.08
2017-05-18T21:22:27.181Z,4.78
2017-05-18T21:24:55.387Z,5.26
2017-05-18T21:27:23.602Z,5.08
2017-05-18T21:30:02.413Z,4.80
2017-05-18T21:32:30.627Z,4.48
2017-05-18T21:34:58.847Z,5.26
2017-05-18T21:37:27.792Z,4.86
2017-05-18T21:39:56.017Z,5.02
2017-05-18T21:42:24.960Z,4.28
2017-05-18T21:44:53.183Z,4.58
2017-05-18T21:47:22.139Z,4.30
2017-05-18T21:49:50.343Z,5.04
2017-05-18T21:52:20.075Z,4.50
2017-05-18T21:54:48.287Z,5.10
2017-05-18T21:57:16.519Z,4.96
2017-05-18T21:59:44.737Z,5.04
2017-05-18T22:02:12.931Z,5.40
2017-05-18T22:04:41.145Z,5.00
2017-05-18T22:07:09.364Z,5.06
2017-05-18T22:09:37.586Z,5.46
2017-05-18T22:12:06.543Z,4.70
2017-05-18T22:14:34.756Z,5.34
2017-05-18T22:17:03.697Z,5.20
2017-05-18T22:19:32.712Z,6.30
2017-05-18T22:22:00.923Z,4.80
2017-05-18T22:24:29.120Z,5.60
2017-05-18T22:26:57.331Z,5.42
2017-05-18T22:29:25.543Z,4.70
2017-05-18T22:31:53.764Z,3.76
2017-05-18T22:34:21.977Z,5.40
2017-05-18T22:36:50.203Z,5.60
2017-05-18T22:39:18.415Z,6.00
2017-05-18T22:41:46.620Z,5.60
2017-05-18T22:44:14.840Z,6.64
2017-05-18T22:46:43.043Z,6.42
2017-05-18T22:49:12.010Z,5.84
2017-05-18T22:51:40.200Z,6.66
2017-05-18T22:54:08.419Z,6.50
2017-05-18T22:56:36.623Z,6.18
2017-05-18T22:59:04.839Z,6.18
2017-05-18T23:01:33.799Z,6.32
2017-05-18T23:04:02.004Z,6.82
2017-05-18T23:06:30.964Z,5.62
2017-05-18T23:08:59.182Z,5.54
2017-05-18T23:11:28.148Z,5.82
2017-05-18T23:13:56.352Z,5.26
2017-05-18T23:16:25.480Z,5.58
2017-05-18T23:18:53.704Z,5.80
2017-05-18T23:21:21.908Z,5.78
2017-05-18T23:23:50.134Z,5.48
2017-05-18T23:26:18.339Z,5.10
2017-05-18T23:28:59.615Z,5.20
2017-05-18T23:31:28.566Z,5.34
2017-05-18T23:33:56.774Z,5.68
2017-05-18T23:36:24.991Z,5.10
2017-05-18T23:38:53.203Z,5.30
2017-05-18T23:41:21.427Z,4.50
2017-05-18T23:43:49.632Z,5.24
2017-05-18T23:46:17.843Z,5.82
2017-05-18T23:48:46.044Z,6.32
2017-05-18T23:51:14.253Z,6.78
2017-05-18T23:53:42.463Z,7.72
2017-05-18T23:56:24.244Z,8.28
2017-05-18T23:58:52.456Z,6.76
